Time;durP1;ratioP1;P1;durP2;ratioP2;P2;SDS_P1;SDS_P2;PMS_P1;PMS_P2;Temp;Humidity;BMP_temperature;BMP_pressure;BME280_temperature;BME280_humidity;BME280_pressure;Samples;Min_cycle;Max_cycle;Signal;HPM_P1;HPM_P2
2023/06/12 00:01:05;;;;;;;8.10;2.53;;;;;;;23.12;100.00;99881.97;7393029;19;20356;-56
2023/06/12 00:03:31;;;;;;;5.63;2.10;;;;;;;23.85;100.00;99878.38;7393282;19;20010;-56
2023/06/12 00:05:59;;;;;;;5.45;1.58;;;;;;;24.20;100.00;99867.41;7392210;19;20378;-57
2023/06/12 00:08:30;;;;;;;4.85;2.40;;;;;;;23.19;100.00;99863.44;7393483;19;20027;-56
2023/06/12 00:10:57;;;;;;;7.13;2.13;;;;;;;25.22;100.00;99862.63;7391577;19;20017;-56
2023/06/12 00:13:23;;;;;;;6.20;1.77;;;;;;;24.71;100.00;99859.38;7397491;19;20014;-56
2023/06/12 00:15:50;;;;;;;5.45;1.95;;;;;;;23.69;100.00;99862.63;7393155;19;20018;-56
2023/06/12 00:18:17;;;;;;;8.88;3.17;;;;;;;23.39;100.00;99854.03;7393436;19;20002;-56
2023/06/12 00:20:43;;;;;;;7.78;2.05;;;;;;;23.14;100.00;99847.31;7402403;19;20034;-56
2023/06/12 00:23:12;;;;;;;5.18;2.63;;;;;;;22.68;100.00;99854.88;7401026;19;20010;-56
2023/06/12 00:25:39;;;;;;;7.97;2.55;;;;;;;22.59;100.00;99847.63;7400176;19;20348;-56
2023/06/12 00:28:06;;;;;;;5.65;2.15;;;;;;;23.89;100.00;99841.78;7400307;19;20014;-56
2023/06/12 00:30:32;;;;;;;8.52;3.25;;;;;;;23.94;100.00;99840.84;7398676;19;20078;-56
2023/06/12 00:32:58;;;;;;;14.02;3.15;;;;;;;22.87;100.00;99843.25;7398839;19;20015;-56
2023/06/12 00:35:24;;;;;;;5.45;2.40;;;;;;;22.46;100.00;99844.88;7404632;19;20018;-56
2023/06/12 00:37:51;;;;;;;8.35;2.63;;;;;;;22.42;100.00;99850.16;7398464;19;20018;-56
2023/06/12 00:40:17;;;;;;;9.00;2.78;;;;;;;22.29;100.00;99844.56;7399276;19;20017;-56
2023/06/12 00:42:45;;;;;;;9.55;3.05;;;;;;;21.99;100.00;99847.19;7401585;19;20015;-56
2023/06/12 00:45:16;;;;;;;6.57;3.00;;;;;;;22.04;100.00;99846.28;7398657;19;20038;-56
2023/06/12 00:47:45;;;;;;;;;;;;;;;22.23;100.00;99852.47;7399905;19;20021;-56
2023/06/12 00:50:12;;;;;;;4.50;2.03;;;;;;;22.02;100.00;99839.66;7396738;19;20331;-56
2023/06/12 00:52:43;;;;;;;11.18;2.97;;;;;;;21.88;100.00;99847.47;7397004;19;20014;-56
2023/06/12 00:55:10;;;;;;;7.70;3.38;;;;;;;21.94;100.00;99839.56;7400182;19;20010;-56
2023/06/12 00:57:38;;;;;;;7.85;2.17;;;;;;;22.26;100.00;99837.16;7398637;19;20014;-56
2023/06/12 01:00:07;;;;;;;10.25;3.33;;;;;;;22.17;100.00;99829.19;7397914;19;20150;-56
2023/06/12 01:02:42;;;;;;;6.88;3.38;;;;;;;22.00;100.00;99831.72;7397504;19;20015;-56
2023/06/12 01:05:15;;;;;;;17.52;5.13;;;;;;;22.40;100.00;99841.44;7398502;19;20021;-56
2023/06/12 01:07:54;;;;;;;9.40;3.45;;;;;;;22.25;100.00;99829.97;7399369;19;20010;-56
2023/06/12 01:10:41;;;;;;;4.97;2.70;;;;;;;22.21;100.00;99829.59;7396462;19;20018;-56
2023/06/12 01:13:10;;;;;;;12.60;4.57;;;;;;;22.01;100.00;99833.22;7401241;19;20011;-56
2023/06/12 01:15:36;;;;;;;4.50;2.50;;;;;;;23.05;100.00;99820.19;7396241;19;20010;-56
2023/06/12 01:18:03;;;;;;;11.10;3.50;;;;;;;22.33;100.00;99818.66;7400903;19;20014;-56
2023/06/12 01:20:30;;;;;;;13.20;3.17;;;;;;;22.29;100.00;99819.03;7397933;19;20031;-56
2023/06/12 01:23:05;;;;;;;8.85;2.65;;;;;;;22.22;100.00;99822.56;7396613;19;20018;-56
2023/06/12 01:26:02;;;;;;;15.55;5.18;;;;;;;22.72;100.00;99815.50;7397122;19;20369;-56
2023/06/12 01:28:47;;;;;;;15.13;3.55;;;;;;;23.06;100.00;99804.69;7401297;19;20011;-56
2023/06/12 01:31:15;;;;;;;13.85;2.42;;;;;;;22.60;100.00;99815.09;7394630;19;20010;-56
2023/06/12 01:33:50;;;;;;;11.95;4.78;;;;;;;22.72;100.00;99809.09;7396398;19;20453;-56
2023/06/12 01:36:20;;;;;;;8.95;3.83;;;;;;;22.60;100.00;99809.41;7395974;19;20561;-56
2023/06/12 01:38:55;;;;;;;19.75;3.42;;;;;;;22.57;100.00;99813.34;7397599;19;20010;-55
2023/06/12 01:41:26;;;;;;;16.42;3.80;;;;;;;22.28;100.00;99811.84;7396957;19;20070;-55
2023/06/12 01:43:53;;;;;;;9.30;3.17;;;;;;;22.37;100.00;99802.81;7395971;19;20397;-55
2023/06/12 01:46:20;;;;;;;17.35;4.38;;;;;;;22.80;100.00;99804.19;7395445;19;20470;-56
2023/06/12 01:48:46;;;;;;;8.80;3.83;;;;;;;23.17;100.00;99804.31;7397151;19;20010;-55
2023/06/12 01:51:13;;;;;;;7.13;2.83;;;;;;;23.84;100.00;99805.78;7396550;19;20027;-56
2023/06/12 01:53:39;;;;;;;7.05;3.05;;;;;;;23.50;100.00;99799.66;7395323;19;20015;-55
2023/06/12 01:56:06;;;;;;;15.15;3.80;;;;;;;23.65;100.00;99801.78;7394481;19;20017;-55
2023/06/12 01:58:33;;;;;;;12.10;5.60;;;;;;;24.24;100.00;99793.78;7394970;19;20100;-55
2023/06/12 02:01:15;;;;;;;9.05;3.40;;;;;;;24.28;100.00;99802.72;7396815;19;20018;-55
2023/06/12 02:03:45;;;;;;;18.02;4.47;;;;;;;24.37;100.00;99802.09;7395439;19;20011;-55
2023/06/12 02:06:15;;;;;;;15.00;3.05;;;;;;;24.25;100.00;99792.47;7395261;19;20010;-55
2023/06/12 02:08:42;;;;;;;10.60;3.42;;;;;;;23.78;100.00;99799.50;7396884;19;20074;-55
2023/06/12 02:11:13;;;;;;;10.65;4.63;;;;;;;23.79;100.00;99791.72;7393982;19;20045;-55
2023/06/12 02:13:39;;;;;;;6.63;3.03;;;;;;;23.65;100.00;99796.84;7397567;19;20011;-55
2023/06/12 02:16:07;;;;;;;5.28;1.95;;;;;;;23.65;100.00;99790.41;7394260;19;20030;-56
2023/06/12 02:18:34;;;;;;;7.88;2.75;;;;;;;23.86;100.00;99788.91;7395541;19;20423;-55
2023/06/12 02:21:00;;;;;;;9.60;2.55;;;;;;;23.58;100.00;99791.91;7394336;19;20062;-55
2023/06/12 02:23:26;;;;;;;6.60;2.42;;;;;;;23.77;100.00;99792.31;7394336;19;20459;-55
2023/06/12 02:25:53;;;;;;;8.18;3.03;;;;;;;24.14;100.00;99790.03;7396914;19;20337;-55
2023/06/12 02:28:20;;;;;;;7.38;2.30;;;;;;;24.10;100.00;99782.63;7394055;19;20023;-55
2023/06/12 02:30:46;;;;;;;10.38;3.45;;;;;;;23.65;100.00;99785.47;7391605;19;20022;-55
2023/06/12 02:33:13;;;;;;;4.95;2.25;;;;;;;23.52;100.00;99794.16;7394227;19;20018;-56
2023/06/12 02:35:42;;;;;;;8.00;2.22;;;;;;;24.04;100.00;99787.75;7395466;19;20032;-55
2023/06/12 02:38:09;;;;;;;10.30;3.03;;;;;;;24.22;100.00;99787.91;7394689;19;20074;-55
2023/06/12 02:40:35;;;;;;;7.03;2.95;;;;;;;24.00;100.00;99789.44;7394060;19;20495;-55
2023/06/12 02:43:02;;;;;;;10.32;2.45;;;;;;;23.51;100.00;99797.59;7393884;19;20025;-55
2023/06/12 02:45:30;;;;;;;7.28;2.63;;;;;;;23.07;100.00;99800.50;7393877;19;20011;-55
2023/06/12 02:47:56;;;;;;;8.18;3.45;;;;;;;23.43;100.00;99797.59;7393797;19;20021;-55
2023/06/12 02:50:24;;;;;;;12.48;2.42;;;;;;;23.55;100.00;99795.88;7392043;19;20502;-55
2023/06/12 02:52:58;;;;;;;6.90;2.22;;;;;;;23.02;100.00;99797.84;7394976;19;20019;-55
2023/06/12 02:55:24;;;;;;;4.85;2.63;;;;;;;22.86;100.00;99797.03;7394182;19;20017;-55
2023/06/12 02:57:53;;;;;;;8.82;2.65;;;;;;;22.99;100.00;99793.28;7394406;19;20019;-55
2023/06/12 03:00:19;;;;;;;2.95;1.88;;;;;;;22.87;100.00;99792.84;7392853;19;20486;-55
2023/06/12 03:02:47;;;;;;;5.13;2.42;;;;;;;22.92;100.00;99794.00;7394902;19;20044;-55
2023/06/12 03:05:14;;;;;;;11.77;2.92;;;;;;;22.85;100.00;99791.91;7392836;19;20018;-56
2023/06/12 03:07:44;;;;;;;10.45;2.85;;;;;;;23.45;100.00;99789.25;7393077;19;20018;-56
2023/06/12 03:10:14;;;;;;;6.30;3.25;;;;;;;23.07;100.00;99788.38;7393930;19;20459;-55
2023/06/12 03:12:40;;;;;;;8.40;3.15;;;;;;;22.98;100.00;99791.75;7396435;19;20014;-56
2023/06/12 03:15:08;;;;;;;8.48;2.80;;;;;;;23.39;100.00;99788.66;7392562;19;20030;-55
2023/06/12 03:17:34;;;;;;;8.27;3.30;;;;;;;23.43;100.00;99785.47;7391979;19;20070;-55
2023/06/12 03:20:00;;;;;;;7.07;2.25;;;;;;;23.24;100.00;99797.13;7392761;19;20015;-55
2023/06/12 03:22:26;;;;;;;9.63;3.55;;;;;;;23.18;100.00;99793.72;7394563;19;20329;-55
2023/06/12 03:24:53;;;;;;;13.93;3.08;;;;;;;23.01;100.00;99790.63;7392007;19;20018;-55
2023/06/12 03:27:21;;;;;;;10.85;3.88;;;;;;;22.93;100.00;99784.19;7391609;19;20031;-55
2023/06/12 03:29:48;;;;;;;12.52;3.15;;;;;;;23.38;100.00;99786.38;7393037;19;20010;-55
2023/06/12 03:32:15;;;;;;;8.10;2.50;;;;;;;23.16;100.00;99782.16;7392048;19;20015;-55
2023/06/12 03:34:48;;;;;;;9.68;3.53;;;;;;;23.47;100.00;99783.75;7394678;19;20007;-55
2023/06/12 03:37:15;;;;;;;9.30;2.63;;;;;;;23.66;100.00;99786.22;7391723;19;20467;-55
2023/06/12 03:39:42;;;;;;;10.18;3.38;;;;;;;23.84;100.00;99785.09;7396233;19;20066;-55
2023/06/12 03:42:10;;;;;;;5.32;2.42;;;;;;;23.57;100.00;99781.88;7392704;19;20015;-55
2023/06/12 03:44:56;;;;;;;6.97;2.92;;;;;;;29.28;100.00;99779.75;7392818;19;20025;-55
2023/06/12 03:47:24;;;;;;;8.50;2.63;;;;;;;27.38;100.00;99776.03;7395439;19;20011;-55
2023/06/12 03:49:50;;;;;;;11.80;3.55;;;;;;;24.40;100.00;99781.03;7393019;19;20011;-55
2023/06/12 03:52:18;;;;;;;7.10;2.55;;;;;;;23.75;100.00;99777.91;7393058;19;20034;-55
2023/06/12 03:54:45;;;;;;;11.23;3.00;;;;;;;26.00;100.00;99776.69;7399354;19;20018;-56
2023/06/12 03:57:11;;;;;;;6.95;2.10;;;;;;;25.55;100.00;99780.69;7400268;19;20423;-55
2023/06/12 03:59:37;;;;;;;9.23;2.75;;;;;;;24.51;100.00;99778.56;7402467;19;20010;-55
2023/06/12 04:02:03;;;;;;;11.20;3.95;;;;;;;24.89;100.00;99784.09;7400687;19;20022;-55
2023/06/12 04:04:31;;;;;;;11.02;3.05;;;;;;;24.27;100.00;99782.03;7399664;19;20022;-55
2023/06/12 04:06:57;;;;;;;3.33;1.42;;;;;;;24.32;100.00;99786.75;7398459;19;20015;-55
2023/06/12 04:09:24;;;;;;;10.82;3.63;;;;;;;25.02;100.00;99785.94;7403062;19;20019;-55
2023/06/12 04:11:51;;;;;;;9.20;2.47;;;;;;;23.87;100.00;99790.41;7402030;19;20028;-55
2023/06/12 04:14:17;;;;;;;6.13;2.22;;;;;;;23.59;100.00;99787.75;7400163;19;20014;-55
2023/06/12 04:16:43;;;;;;;5.53;2.55;;;;;;;23.05;100.00;99791.03;7397126;19;20015;-55
2023/06/12 04:19:09;;;;;;;9.80;3.58;;;;;;;22.94;100.00;99786.44;7397932;19;20017;-55
2023/06/12 04:21:36;;;;;;;6.20;2.47;;;;;;;22.74;100.00;99792.25;7398084;19;20014;-55
2023/06/12 04:24:04;;;;;;;6.85;2.50;;;;;;;22.77;100.00;99782.59;7401875;19;20352;-55
2023/06/12 04:26:31;;;;;;;8.38;3.65;;;;;;;24.52;100.00;99785.75;7398881;19;20014;-55
2023/06/12 04:28:57;;;;;;;7.97;2.83;;;;;;;24.07;100.00;99780.16;7398149;19;20011;-55
2023/06/12 04:31:26;;;;;;;7.05;2.80;;;;;;;23.41;100.00;99780.34;7396127;19;20353;-55
2023/06/12 04:33:54;;;;;;;6.05;2.40;;;;;;;23.70;100.00;99778.84;7400405;19;20016;-55
2023/06/12 04:36:23;;;;;;;9.00;2.72;;;;;;;23.76;100.00;99779.41;7402073;19;20018;-55
2023/06/12 04:38:53;;;;;;;7.95;3.28;;;;;;;23.81;100.00;99778.47;7399976;19;20010;-55
2023/06/12 04:41:24;;;;;;;10.07;3.28;;;;;;;23.51;100.00;99781.28;7399300;19;20014;-55
2023/06/12 04:43:58;;;;;;;8.18;3.05;;;;;;;23.56;100.00;99788.88;7398198;19;20015;-55
2023/06/12 04:46:28;;;;;;;7.47;2.90;;;;;;;24.04;100.00;99778.41;7399578;19;20017;-55
2023/06/12 04:48:55;;;;;;;9.45;2.90;;;;;;;24.08;100.00;99781.69;7397869;19;20014;-55
2023/06/12 04:51:23;;;;;;;4.88;2.03;;;;;;;23.89;100.00;99787.75;7398147;19;20018;-55
2023/06/12 04:53:53;;;;;;;6.93;3.03;;;;;;;23.88;100.00;99774.84;7397925;19;20329;-55
2023/06/12 04:56:22;;;;;;;9.60;1.80;;;;;;;23.88;100.00;99774.84;7396772;19;20010;-55
2023/06/12 04:58:53;;;;;;;10.00;3.53;;;;;;;24.25;100.00;99772.53;7400336;19;20104;-55
2023/06/12 05:01:21;;;;;;;10.02;2.85;;;;;;;24.21;100.00;99775.78;7396641;19;20060;-55
2023/06/12 05:03:49;;;;;;;10.48;3.40;;;;;;;24.21;100.00;99772.94;7396579;19;20011;-56
2023/06/12 05:06:16;;;;;;;5.57;2.67;;;;;;;24.40;100.00;99781.03;7395791;19;20015;-56
2023/06/12 05:08:43;;;;;;;7.03;2.75;;;;;;;24.45;100.00;99777.25;7399326;19;20022;-55
2023/06/12 05:11:09;;;;;;;7.60;2.90;;;;;;;24.43;100.00;99782.75;7400297;19;20089;-56
2023/06/12 05:13:35;;;;;;;8.15;3.58;;;;;;;24.68;100.00;99789.31;7400990;19;20422;-56
2023/06/12 05:16:02;;;;;;;5.68;2.70;;;;;;;25.28;100.00;99788.25;7396432;19;20189;-56
2023/06/12 05:18:29;;;;;;;5.63;2.40;;;;;;;25.17;100.00;99786.63;7396678;19;20048;-56
2023/06/12 05:20:58;;;;;;;11.68;3.10;;;;;;;24.83;100.00;99786.41;7399185;19;20010;-56
2023/06/12 05:23:24;;;;;;;8.50;3.63;;;;;;;25.03;100.00;99784.63;7399880;19;20029;-56
2023/06/12 05:25:50;;;;;;;7.93;3.05;;;;;;;25.19;100.00;99786.78;7396237;19;20013;-55
2023/06/12 05:28:16;;;;;;;8.10;2.83;;;;;;;25.28;100.00;99783.31;7398280;19;20255;-55
2023/06/12 05:30:44;;;;;;;9.85;2.35;;;;;;;25.38;100.00;99784.19;7397343;19;20092;-56
2023/06/12 05:33:10;;;;;;;18.60;3.22;;;;;;;25.16;100.00;99779.41;7395515;19;20025;-56
2023/06/12 05:35:36;;;;;;;10.27;3.53;;;;;;;25.21;100.00;99789.81;7396268;19;20014;-56
2023/06/12 05:38:03;;;;;;;6.82;1.80;;;;;;;25.18;100.00;99793.09;7395631;19;20034;-56
2023/06/12 05:40:30;;;;;;;9.90;3.38;;;;;;;25.09;100.00;99788.75;7395154;19;20010;-57
2023/06/12 05:42:59;;;;;;;6.35;2.78;;;;;;;25.24;100.00;99791.53;7397023;19;20018;-56
2023/06/12 05:45:25;;;;;;;9.35;3.28;;;;;;;25.19;100.00;99789.66;7396265;19;20014;-56
2023/06/12 05:47:51;;;;;;;14.13;2.33;;;;;;;25.13;100.00;99791.97;7397628;19;20056;-56
2023/06/12 05:50:17;;;;;;;7.57;2.95;;;;;;;25.33;100.00;99785.19;7396776;19;20070;-56
2023/06/12 05:52:43;;;;;;;10.60;3.17;;;;;;;25.29;100.00;99793.41;7397293;19;20015;-56
2023/06/12 05:55:10;;;;;;;9.57;3.05;;;;;;;25.31;100.00;99785.03;7398412;19;20011;-56
2023/06/12 05:57:36;;;;;;;7.85;2.83;;;;;;;25.38;100.00;99789.16;7394417;19;20510;-56
2023/06/12 06:00:05;;;;;;;8.70;3.08;;;;;;;25.43;100.00;99797.50;7396455;19;20011;-56
2023/06/12 06:02:42;;;;;;;10.68;3.08;;;;;;;25.95;100.00;99789.09;7396243;19;20018;-56
2023/06/12 06:05:10;;;;;;;9.25;4.53;;;;;;;26.12;100.00;99789.16;7395644;19;20019;-56
2023/06/12 06:07:37;;;;;;;9.43;4.20;;;;;;;25.94;100.00;99787.59;7394957;19;20017;-56
2023/06/12 06:10:06;;;;;;;8.00;3.03;;;;;;;26.33;100.00;99792.38;7399582;19;20007;-56
2023/06/12 06:12:33;;;;;;;8.33;3.73;;;;;;;26.39;100.00;99792.88;7399613;19;20011;-56
2023/06/12 06:14:59;;;;;;;8.98;4.13;;;;;;;26.63;100.00;99800.63;7395184;19;20010;-56
2023/06/12 06:17:26;;;;;;;10.07;3.92;;;;;;;26.96;100.00;99798.34;7397938;19;20010;-56
2023/06/12 06:19:53;;;;;;;7.80;3.05;;;;;;;27.68;100.00;99800.53;7394635;19;20011;-56
2023/06/12 06:22:19;;;;;;;11.23;3.63;;;;;;;26.33;100.00;99812.38;7395033;19;20014;-56
2023/06/12 06:24:45;;;;;;;8.57;2.60;;;;;;;26.78;100.00;99799.69;7395107;19;20014;-56
2023/06/12 06:27:12;;;;;;;11.73;4.03;;;;;;;26.87;100.00;99802.66;7396135;19;20014;-57
2023/06/12 06:29:39;;;;;;;6.85;2.88;;;;;;;26.83;100.00;99804.41;7396986;19;20078;-57
2023/06/12 06:32:06;;;;;;;17.63;3.85;;;;;;;26.65;100.00;99806.50;7395257;19;20041;-57
2023/06/12 06:34:35;;;;;;;6.00;2.53;;;;;;;27.01;100.00;99806.63;7397277;19;20014;-57
2023/06/12 06:37:01;;;;;;;10.23;3.53;;;;;;;27.33;100.00;99796.31;7397070;19;20010;-57
2023/06/12 06:39:28;;;;;;;8.65;2.47;;;;;;;27.03;100.00;99803.94;7395744;19;20018;-57
2023/06/12 06:41:54;;;;;;;12.45;4.28;;;;;;;26.68;100.00;99807.44;7398208;19;20015;-57
2023/06/12 06:44:20;;;;;;;9.50;5.10;;;;;;;26.95;100.00;99803.28;7397014;19;20480;-57
2023/06/12 06:46:49;;;;;;;9.85;2.80;;;;;;;26.99;100.00;99808.56;7395554;19;20014;-57
2023/06/12 06:49:16;;;;;;;7.35;2.63;;;;;;;26.94;100.00;99806.75;7396322;19;20025;-57
2023/06/12 06:51:43;;;;;;;12.88;3.08;;;;;;;27.04;100.00;99802.59;7394580;19;20014;-57
2023/06/12 06:54:10;;;;;;;9.25;3.20;;;;;;;27.16;100.00;99810.66;7395575;19;20019;-57
2023/06/12 06:56:38;;;;;;;5.63;2.20;;;;;;;26.94;100.00;99813.19;7396698;19;20485;-57
2023/06/12 06:59:05;;;;;;;13.27;3.88;;;;;;;26.98;100.00;99812.78;7395799;19;20006;-57
2023/06/12 07:01:33;;;;;;;11.70;3.55;;;;;;;27.83;100.00;99814.59;7395190;19;20014;-58
2023/06/12 07:03:59;;;;;;;12.40;3.00;;;;;;;27.59;100.00;99813.47;7395601;19;20350;-57
2023/06/12 07:06:26;;;;;;;6.50;3.63;;;;;;;27.61;100.00;99819.34;7396911;19;20365;-57
2023/06/12 07:08:53;;;;;;;7.30;2.78;;;;;;;27.21;100.00;99823.91;7395473;19;20396;-57
2023/06/12 07:11:19;;;;;;;9.98;2.75;;;;;;;27.26;100.00;99825.75;7391519;19;20014;-57
2023/06/12 07:13:45;;;;;;;6.22;2.30;;;;;;;27.10;100.00;99828.06;7397535;19;20099;-57
2023/06/12 07:16:11;;;;;;;6.07;3.05;;;;;;;27.18;100.00;99830.84;7393146;19;20050;-57
2023/06/12 07:18:37;;;;;;;8.63;3.25;;;;;;;27.20;100.00;99828.13;7392775;19;20011;-57
2023/06/12 07:21:04;;;;;;;9.80;2.45;;;;;;;27.05;100.00;99832.69;7392254;19;20365;-57
2023/06/12 07:23:30;;;;;;;8.73;3.67;;;;;;;26.96;100.00;99838.34;7394865;19;20019;-57
2023/06/12 07:25:56;;;;;;;8.15;3.53;;;;;;;26.75;100.00;99832.31;7395610;19;20031;-57
2023/06/12 07:28:22;;;;;;;6.43;2.42;;;;;;;26.80;100.00;99829.22;7390226;19;20011;-57
2023/06/12 07:30:48;;;;;;;9.98;3.25;;;;;;;27.35;100.00;99830.78;7391542;19;20025;-57
2023/06/12 07:33:15;;;;;;;8.20;3.15;;;;;;;26.69;100.00;99835.41;7393953;19;20014;-57
2023/06/12 07:35:41;;;;;;;5.50;2.97;;;;;;;26.73;100.00;99830.03;7392880;19;20013;-57
2023/06/12 07:38:08;;;;;;;8.60;3.00;;;;;;;26.40;100.00;99817.22;7393471;19;20031;-57
2023/06/12 07:40:34;;;;;;;8.90;3.47;;;;;;;26.38;100.00;99825.63;7392537;19;20091;-57
2023/06/12 07:43:02;;;;;;;5.03;2.72;;;;;;;27.23;100.00;99815.50;7392143;19;20010;-57
2023/06/12 07:45:29;;;;;;;8.38;4.10;;;;;;;26.60;100.00;99830.34;7394355;19;20015;-57
2023/06/12 07:47:57;;;;;;;10.88;2.92;;;;;;;27.18;100.00;99819.41;7391173;19;20024;-57
2023/06/12 07:50:26;;;;;;;5.57;2.28;;;;;;;27.12;100.00;99827.47;7390944;19;20014;-57
2023/06/12 07:52:53;;;;;;;7.93;2.97;;;;;;;27.10;100.00;99830.16;7391919;19;20324;-57
2023/06/12 07:55:21;;;;;;;11.25;3.38;;;;;;;27.99;100.00;99829.44;7395330;19;20015;-57
2023/06/12 07:57:47;;;;;;;8.43;3.15;;;;;;;27.32;100.00;99831.97;7394382;19;20021;-57
2023/06/12 08:00:14;;;;;;;8.32;3.25;;;;;;;27.40;100.00;99824.81;7394878;19;20006;-57
2023/06/12 08:02:54;;;;;;;9.75;3.95;;;;;;;27.74;100.00;99823.94;7395134;19;20046;-57
2023/06/12 08:05:22;;;;;;;3.95;1.95;;;;;;;27.61;100.00;99818.59;7392640;19;20010;-57
2023/06/12 08:07:49;;;;;;;9.68;3.15;;;;;;;28.13;100.00;99819.84;7395653;19;20021;-57
2023/06/12 08:10:16;;;;;;;9.13;3.05;;;;;;;28.62;100.00;99829.28;7396228;19;20077;-56
2023/06/12 08:12:42;;;;;;;7.00;2.05;;;;;;;27.65;100.00;99827.50;7393469;19;20347;-57
2023/06/12 08:15:09;;;;;;;6.32;2.40;;;;;;;26.96;100.00;99832.63;7393012;19;20014;-57
2023/06/12 08:17:37;;;;;;;6.13;2.30;;;;;;;28.30;100.00;99827.59;7394865;19;20006;-57
2023/06/12 08:20:08;;;;;;;6.30;2.63;;;;;;;28.81;100.00;99823.56;7392936;19;20023;-56
2023/06/12 08:22:34;;;;;;;7.80;2.22;;;;;;;29.07;100.00;99828.38;7391369;19;20110;-56
2023/06/12 08:25:09;;;;;;;4.97;2.45;;;;;;;28.30;100.00;99822.59;7392731;19;20017;-56
2023/06/12 08:27:36;;;;;;;8.25;2.10;;;;;;;28.45;100.00;99819.47;7395237;19;20014;-56
2023/06/12 08:30:03;;;;;;;7.25;2.95;;;;;;;28.70;100.00;99821.28;7395804;19;20027;-57
2023/06/12 08:32:30;;;;;;;8.88;2.95;;;;;;;28.32;100.00;99827.72;7389636;19;20044;-56
2023/06/12 08:34:57;;;;;;;7.13;2.00;;;;;;;28.78;100.00;99824.78;7391123;19;20014;-56
2023/06/12 08:37:24;;;;;;;5.72;2.80;;;;;;;28.72;100.00;99822.19;7390824;19;20074;-57
2023/06/12 08:39:50;;;;;;;3.97;1.70;;;;;;;28.92;100.00;99823.72;7396324;19;20074;-57
2023/06/12 08:42:17;;;;;;;5.88;2.85;;;;;;;29.06;100.00;99821.13;7399030;19;20011;-57
2023/06/12 08:44:45;;;;;;;8.32;3.35;;;;;;;29.22;100.00;99822.31;7397513;19;20459;-56
2023/06/12 08:47:13;;;;;;;5.63;1.92;;;;;;;29.37;100.00;99821.97;7401736;19;20019;-56
2023/06/12 08:49:39;;;;;;;6.45;3.20;;;;;;;28.71;100.00;99819.94;7404035;19;20015;-56
2023/06/12 08:52:06;;;;;;;14.18;4.13;;;;;;;28.81;100.00;99823.56;7395891;19;20463;-56
2023/06/12 08:54:34;;;;;;;4.70;2.80;;;;;;;28.95;100.00;99816.00;7398819;19;20070;-56
2023/06/12 08:57:01;;;;;;;9.85;2.67;;;;;;;28.69;100.00;99814.06;7399309;19;20084;-57
2023/06/12 08:59:28;;;;;;;3.83;1.98;;;;;;;28.45;100.00;99812.97;7399306;19;20516;-57
2023/06/12 09:01:55;;;;;;;4.50;2.28;;;;;;;28.88;100.00;99809.06;7396084;19;20015;-57
2023/06/12 09:04:28;;;;;;;2.10;1.23;;;;;;;29.56;100.00;99807.56;7398139;19;20385;-57
2023/06/12 09:07:01;;;;;;;3.88;1.67;;;;;;;31.61;100.00;99811.34;7396380;19;20045;-57
2023/06/12 09:09:41;;;;;;;3.38;1.58;;;;;;;31.97;100.00;99802.09;7402391;19;20014;-57
2023/06/12 09:12:12;;;;;;;3.03;1.30;;;;;;;30.25;100.00;99804.53;7397509;19;20010;-57
2023/06/12 09:14:50;;;;;;;3.95;1.67;;;;;;;29.76;100.00;99799.66;7398286;19;20251;-57
2023/06/12 09:17:17;;;;;;;5.43;2.28;;;;;;;29.11;100.00;99803.59;7397883;19;20039;-57
2023/06/12 09:19:45;;;;;;;4.35;2.30;;;;;;;29.22;100.00;99805.09;7402526;19;20126;-56
2023/06/12 09:22:12;;;;;;;5.38;2.00;;;;;;;29.31;100.00;99801.47;7398610;19;20018;-57
2023/06/12 09:24:40;;;;;;;3.42;1.92;;;;;;;28.82;100.00;99802.13;7398468;19;20003;-56
2023/06/12 09:27:07;;;;;;;6.43;2.22;;;;;;;28.64;100.00;99815.13;7399104;19;20007;-56
2023/06/12 09:29:38;;;;;;;5.03;1.52;;;;;;;27.79;100.00;99814.28;7401948;19;20011;-56
2023/06/12 09:32:13;;;;;;;5.57;2.17;;;;;;;27.31;100.00;99816.91;7395401;19;20019;-56
2023/06/12 09:34:45;;;;;;;4.55;2.03;;;;;;;28.15;100.00;99814.28;7397386;19;20018;-56
2023/06/12 09:37:14;;;;;;;2.40;1.45;;;;;;;28.52;100.00;99809.22;7397264;19;20011;-56
2023/06/12 09:39:41;;;;;;;4.13;1.50;;;;;;;30.26;100.00;99806.03;7401206;19;20068;-56
2023/06/12 09:42:10;;;;;;;4.13;1.58;;;;;;;29.97;100.00;99811.94;7396975;19;20015;-56
2023/06/12 09:44:38;;;;;;;4.68;2.15;;;;;;;29.59;100.00;99814.22;7397582;19;20332;-57
2023/06/12 09:47:05;;;;;;;2.35;1.23;;;;;;;29.82;100.00;99809.44;7397466;19;20006;-56
2023/06/12 09:49:32;;;;;;;3.70;1.73;;;;;;;30.12;100.00;99818.69;7401765;19;20018;-56
2023/06/12 09:52:04;;;;;;;3.35;1.20;;;;;;;29.89;100.00;99813.50;7393155;19;20017;-56
2023/06/12 09:54:31;;;;;;;6.38;1.50;;;;;;;30.35;100.00;99819.63;7396481;19;20034;-57
2023/06/12 09:56:59;;;;;;;1.77;1.00;;;;;;;30.34;100.00;99814.50;7397117;19;20014;-56
2023/06/12 09:59:32;;;;;;;3.95;1.35;;;;;;;30.60;100.00;99807.63;7400796;19;20014;-57
2023/06/12 10:02:04;;;;;;;6.50;1.55;;;;;;;30.46;100.00;99813.19;7395783;19;20031;-57
2023/06/12 10:04:33;;;;;;;4.70;1.83;;;;;;;31.94;100.00;99803.34;7397247;19;20010;-57
2023/06/12 10:07:06;;;;;;;3.53;1.67;;;;;;;32.63;100.00;99797.50;7396713;19;20015;-56
2023/06/12 10:09:33;;;;;;;4.75;1.70;;;;;;;32.74;100.00;99799.59;7400415;19;20052;-57
2023/06/12 10:12:00;;;;;;;3.10;1.58;;;;;;;31.88;100.00;99800.81;7396106;19;20018;-57
2023/06/12 10:14:26;;;;;;;3.30;1.13;;;;;;;31.04;100.00;99801.19;7396798;19;20015;-56
2023/06/12 10:16:56;;;;;;;3.83;1.23;;;;;;;31.70;100.00;99802.59;7396057;19;20015;-56
2023/06/12 10:19:25;;;;;;;3.67;1.05;;;;;;;31.58;100.00;99795.34;7396491;19;20018;-56
2023/06/12 10:21:53;;;;;;;8.20;1.63;;;;;;;31.33;100.00;99799.53;7396781;19;20028;-56
2023/06/12 10:24:20;;;;;;;2.25;1.23;;;;;;;32.44;100.00;99797.78;7395950;19;20459;-56
2023/06/12 10:26:50;;;;;;;6.50;1.70;;;;;;;31.71;100.00;99797.56;7396296;19;20472;-56
2023/06/12 10:29:26;;;;;;;2.25;1.15;;;;;;;31.52;100.00;99798.56;7399664;19;20011;-57
2023/06/12 10:31:53;;;;;;;2.88;1.00;;;;;;;30.71;100.00;99792.53;7393474;19;20657;-57
2023/06/12 10:34:20;;;;;;;5.32;1.90;;;;;;;32.17;100.00;99783.16;7397032;19;20026;-56
2023/06/12 10:36:46;;;;;;;11.02;1.50;;;;;;;31.20;100.00;99791.50;7395501;19;20014;-62
2023/06/12 10:39:23;;;;;;;2.63;1.02;;;;;;;32.23;100.00;99789.28;7397907;19;20070;-56
2023/06/12 10:41:56;;;;;;;5.80;1.60;;;;;;;32.12;100.00;99790.06;7395702;19;20014;-56
2023/06/12 10:44:39;;;;;;;3.75;1.88;;;;;;;32.86;100.00;99779.31;7393040;19;20010;-56
2023/06/12 10:47:16;;;;;;;5.33;1.47;;;;;;;32.28;100.00;99791.03;7393104;19;20015;-57
2023/06/12 10:49:56;;;;;;;4.43;1.23;;;;;;;32.34;100.00;99776.97;7397687;19;20044;-56
2023/06/12 10:52:22;;;;;;;9.38;1.30;;;;;;;32.76;99.99;99782.38;7393906;19;20011;-56
2023/06/12 10:55:09;;;;;;;1.63;0.88;;;;;;;31.56;100.00;99787.31;7394412;19;20007;-56
2023/06/12 10:57:35;;;;;;;3.17;1.38;;;;;;;33.22;100.00;99786.44;7394431;19;20007;-56
2023/06/12 11:00:05;;;;;;;4.78;1.38;;;;;;;33.27;100.00;99783.13;7395177;19;20014;-56
2023/06/12 11:02:32;;;;;;;2.85;1.38;;;;;;;32.74;91.63;99779.38;7393379;19;20467;-56
2023/06/12 11:05:03;;;;;;;3.22;0.95;;;;;;;33.23;91.83;99782.16;7395245;19;20014;-56
2023/06/12 11:07:34;;;;;;;2.65;1.48;;;;;;;32.59;96.93;99776.31;7393474;19;20037;-56
2023/06/12 11:10:10;;;;;;;6.35;1.58;;;;;;;32.60;96.55;99772.78;7399056;19;20015;-56
2023/06/12 11:12:36;;;;;;;2.15;1.13;;;;;;;34.21;92.26;99767.31;7397259;19;20015;-57
2023/06/12 11:15:02;;;;;;;2.95;0.85;;;;;;;33.75;86.99;99764.84;7395412;19;20487;-56
2023/06/12 11:17:29;;;;;;;2.90;1.65;;;;;;;32.37;89.84;99761.31;7394340;19;20399;-56
2023/06/12 11:20:00;;;;;;;4.35;1.45;;;;;;;34.23;87.19;99767.41;7397914;19;20017;-57
2023/06/12 11:22:26;;;;;;;5.97;1.55;;;;;;;34.74;87.25;99764.19;7394094;19;20027;-57
2023/06/12 11:24:59;;;;;;;5.05;2.30;;;;;;;35.43;84.66;99766.09;7393801;19;20010;-57
2023/06/12 11:27:26;;;;;;;3.28;0.90;;;;;;;36.31;76.89;99759.94;7393850;19;20074;-56
2023/06/12 11:29:52;;;;;;;2.55;1.40;;;;;;;35.66;76.39;99762.13;7397755;19;20030;-57